sensor_id;sensor_type;location;lat;lon;timestamp;P1;durP1;ratioP1;P2;durP2;ratioP2
4601;SDS011;2313;48.552;9.370;2022-10-31T00:00:57;10.03;;;3.07;;
4601;SDS011;2313;48.552;9.370;2022-10-31T00:03:24;8.63;;;4.10;;
4601;SDS011;2313;48.552;9.370;2022-10-31T00:05:51;12.83;;;3.80;;
4601;SDS011;2313;48.552;9.370;2022-10-31T00:08:17;6.07;;;2.87;;
4601;SDS011;2313;48.552;9.370;2022-10-31T00:10:43;11.40;;;3.30;;
4601;SDS011;2313;48.552;9.370;2022-10-31T00:13:10;9.87;;;3.20;;
4601;SDS011;2313;48.552;9.370;2022-10-31T00:15:39;8.77;;;3.17;;
4601;SDS011;2313;48.552;9.370;2022-10-31T00:18:06;6.30;;;3.17;;
4601;SDS011;2313;48.552;9.370;2022-10-31T00:20:32;4.13;;;3.30;;
4601;SDS011;2313;48.552;9.370;2022-10-31T00:22:58;6.43;;;3.20;;
4601;SDS011;2313;48.552;9.370;2022-10-31T00:25:28;18.53;;;3.23;;
4601;SDS011;2313;48.552;9.370;2022-10-31T00:27:57;7.00;;;3.60;;
4601;SDS011;2313;48.552;9.370;2022-10-31T00:30:23;13.73;;;2.93;;
4601;SDS011;2313;48.552;9.370;2022-10-31T00:32:48;7.73;;;3.23;;
4601;SDS011;2313;48.552;9.370;2022-10-31T00:35:14;5.60;;;2.97;;
4601;SDS011;2313;48.552;9.370;2022-10-31T00:37:40;12.83;;;2.90;;
4601;SDS011;2313;48.552;9.370;2022-10-31T00:40:05;9.20;;;3.67;;
4601;SDS011;2313;48.552;9.370;2022-10-31T00:42:31;8.93;;;3.50;;
4601;SDS011;2313;48.552;9.370;2022-10-31T00:44:57;7.80;;;3.40;;
4601;SDS011;2313;48.552;9.370;2022-10-31T00:47:22;16.33;;;4.00;;
4601;SDS011;2313;48.552;9.370;2022-10-31T00:49:48;7.07;;;2.90;;
4601;SDS011;2313;48.552;9.370;2022-10-31T00:52:14;13.30;;;3.80;;
4601;SDS011;2313;48.552;9.370;2022-10-31T00:54:39;7.43;;;4.17;;
4601;SDS011;2313;48.552;9.370;2022-10-31T00:57:05;10.17;;;3.27;;
4601;SDS011;2313;48.552;9.370;2022-10-31T00:59:30;6.90;;;3.33;;
4601;SDS011;2313;48.552;9.370;2022-10-31T01:01:56;8.83;;;3.93;;
4601;SDS011;2313;48.552;9.370;2022-10-31T01:04:22;8.93;;;3.27;;
4601;SDS011;2313;48.552;9.370;2022-10-31T01:06:47;7.17;;;3.40;;
4601;SDS011;2313;48.552;9.370;2022-10-31T01:09:13;7.07;;;3.33;;
4601;SDS011;2313;48.552;9.370;2022-10-31T01:11:38;11.00;;;3.50;;
4601;SDS011;2313;48.552;9.370;2022-10-31T01:14:04;16.10;;;3.53;;
4601;SDS011;2313;48.552;9.370;2022-10-31T01:16:29;8.67;;;3.83;;
4601;SDS011;2313;48.552;9.370;2022-10-31T01:18:55;6.30;;;3.87;;
4601;SDS011;2313;48.552;9.370;2022-10-31T01:21:25;12.43;;;3.50;;
4601;SDS011;2313;48.552;9.370;2022-10-31T01:23:52;10.37;;;4.60;;
4601;SDS011;2313;48.552;9.370;2022-10-31T01:26:23;13.13;;;4.47;;
4601;SDS011;2313;48.552;9.370;2022-10-31T01:28:52;8.30;;;3.57;;
4601;SDS011;2313;48.552;9.370;2022-10-31T01:31:24;9.70;;;4.27;;
4601;SDS011;2313;48.552;9.370;2022-10-31T01:33:54;10.80;;;3.83;;
4601;SDS011;2313;48.552;9.370;2022-10-31T01:36:26;10.40;;;4.60;;
4601;SDS011;2313;48.552;9.370;2022-10-31T01:38:58;6.50;;;3.80;;
4601;SDS011;2313;48.552;9.370;2022-10-31T01:41:30;14.77;;;3.70;;
4601;SDS011;2313;48.552;9.370;2022-10-31T01:43:59;8.27;;;3.63;;
4601;SDS011;2313;48.552;9.370;2022-10-31T01:49:02;8.03;;;3.90;;
4601;SDS011;2313;48.552;9.370;2022-10-31T01:51:35;9.60;;;3.73;;
4601;SDS011;2313;48.552;9.370;2022-10-31T01:54:08;12.23;;;3.43;;
4601;SDS011;2313;48.552;9.370;2022-10-31T01:56:38;7.90;;;3.73;;
4601;SDS011;2313;48.552;9.370;2022-10-31T01:59:07;7.47;;;3.40;;
4601;SDS011;2313;48.552;9.370;2022-10-31T02:01:35;10.30;;;5.17;;
4601;SDS011;2313;48.552;9.370;2022-10-31T02:04:02;10.53;;;3.93;;
4601;SDS011;2313;48.552;9.370;2022-10-31T02:09:00;11.60;;;4.17;;
4601;SDS011;2313;48.552;9.370;2022-10-31T02:11:28;5.03;;;3.20;;
4601;SDS011;2313;48.552;9.370;2022-10-31T02:13:55;9.07;;;4.30;;
4601;SDS011;2313;48.552;9.370;2022-10-31T02:16:21;7.40;;;3.57;;
4601;SDS011;2313;48.552;9.370;2022-10-31T02:18:47;12.63;;;4.97;;
4601;SDS011;2313;48.552;9.370;2022-10-31T02:24:14;8.03;;;4.17;;
4601;SDS011;2313;48.552;9.370;2022-10-31T02:27:00;6.23;;;3.20;;
4601;SDS011;2313;48.552;9.370;2022-10-31T02:29:54;14.80;;;4.57;;
4601;SDS011;2313;48.552;9.370;2022-10-31T02:38:10;5.23;;;3.47;;
4601;SDS011;2313;48.552;9.370;2022-10-31T02:40:59;9.60;;;4.20;;
4601;SDS011;2313;48.552;9.370;2022-10-31T02:43:34;8.63;;;4.40;;
4601;SDS011;2313;48.552;9.370;2022-10-31T02:46:14;7.00;;;3.77;;
4601;SDS011;2313;48.552;9.370;2022-10-31T02:49:07;8.70;;;3.70;;
4601;SDS011;2313;48.552;9.370;2022-10-31T02:51:43;4.73;;;3.43;;
4601;SDS011;2313;48.552;9.370;2022-10-31T02:54:17;7.57;;;3.90;;
4601;SDS011;2313;48.552;9.370;2022-10-31T02:56:46;13.87;;;4.37;;
4601;SDS011;2313;48.552;9.370;2022-10-31T02:59:13;7.80;;;3.80;;
4601;SDS011;2313;48.552;9.370;2022-10-31T03:04:16;7.67;;;3.83;;
4601;SDS011;2313;48.552;9.370;2022-10-31T03:07:10;9.17;;;4.00;;
4601;SDS011;2313;48.552;9.370;2022-10-31T03:12:38;6.10;;;3.80;;
4601;SDS011;2313;48.552;9.370;2022-10-31T03:15:14;18.20;;;4.80;;
4601;SDS011;2313;48.552;9.370;2022-10-31T03:21:20;9.83;;;3.40;;
4601;SDS011;2313;48.552;9.370;2022-10-31T03:23:44;6.57;;;3.77;;
4601;SDS011;2313;48.552;9.370;2022-10-31T03:26:12;11.60;;;3.87;;
4601;SDS011;2313;48.552;9.370;2022-10-31T03:28:44;11.47;;;4.20;;
4601;SDS011;2313;48.552;9.370;2022-10-31T03:31:16;7.30;;;3.57;;
4601;SDS011;2313;48.552;9.370;2022-10-31T03:33:44;11.37;;;3.70;;
4601;SDS011;2313;48.552;9.370;2022-10-31T03:36:12;6.30;;;3.37;;
4601;SDS011;2313;48.552;9.370;2022-10-31T03:38:41;9.80;;;3.73;;
4601;SDS011;2313;48.552;9.370;2022-10-31T03:41:10;11.50;;;4.07;;
4601;SDS011;2313;48.552;9.370;2022-10-31T03:43:40;8.93;;;3.97;;
4601;SDS011;2313;48.552;9.370;2022-10-31T03:46:11;10.73;;;4.33;;
4601;SDS011;2313;48.552;9.370;2022-10-31T03:48:36;10.90;;;4.40;;
4601;SDS011;2313;48.552;9.370;2022-10-31T03:51:07;6.80;;;3.73;;
4601;SDS011;2313;48.552;9.370;2022-10-31T03:59:02;12.33;;;3.90;;
4601;SDS011;2313;48.552;9.370;2022-10-31T04:01:34;6.40;;;3.70;;
4601;SDS011;2313;48.552;9.370;2022-10-31T04:04:03;5.97;;;3.33;;
4601;SDS011;2313;48.552;9.370;2022-10-31T04:06:30;5.90;;;3.47;;
4601;SDS011;2313;48.552;9.370;2022-10-31T04:08:59;10.90;;;3.90;;
4601;SDS011;2313;48.552;9.370;2022-10-31T04:11:32;7.10;;;3.50;;
4601;SDS011;2313;48.552;9.370;2022-10-31T04:14:02;13.33;;;3.50;;
4601;SDS011;2313;48.552;9.370;2022-10-31T04:16:29;10.43;;;3.60;;
4601;SDS011;2313;48.552;9.370;2022-10-31T04:18:55;7.10;;;3.67;;
4601;SDS011;2313;48.552;9.370;2022-10-31T04:21:26;8.47;;;3.63;;
4601;SDS011;2313;48.552;9.370;2022-10-31T04:23:53;13.03;;;3.80;;
4601;SDS011;2313;48.552;9.370;2022-10-31T04:26:19;7.33;;;3.30;;
4601;SDS011;2313;48.552;9.370;2022-10-31T04:28:44;9.87;;;4.03;;
4601;SDS011;2313;48.552;9.370;2022-10-31T04:31:13;14.57;;;3.50;;
4601;SDS011;2313;48.552;9.370;2022-10-31T04:33:39;10.80;;;4.53;;
4601;SDS011;2313;48.552;9.370;2022-10-31T04:36:05;5.47;;;3.50;;
4601;SDS011;2313;48.552;9.370;2022-10-31T04:38:31;6.07;;;4.70;;
4601;SDS011;2313;48.552;9.370;2022-10-31T04:40:56;8.57;;;6.03;;
4601;SDS011;2313;48.552;9.370;2022-10-31T04:43:22;9.10;;;5.77;;
4601;SDS011;2313;48.552;9.370;2022-10-31T04:45:47;8.33;;;4.40;;
4601;SDS011;2313;48.552;9.370;2022-10-31T04:48:13;10.73;;;4.50;;
4601;SDS011;2313;48.552;9.370;2022-10-31T04:50:39;15.00;;;4.10;;
4601;SDS011;2313;48.552;9.370;2022-10-31T04:53:05;9.37;;;4.63;;
4601;SDS011;2313;48.552;9.370;2022-10-31T04:55:31;6.10;;;4.13;;
4601;SDS011;2313;48.552;9.370;2022-10-31T04:57:56;7.93;;;4.13;;
4601;SDS011;2313;48.552;9.370;2022-10-31T05:00:22;8.63;;;4.13;;
4601;SDS011;2313;48.552;9.370;2022-10-31T05:02:50;11.90;;;4.83;;
4601;SDS011;2313;48.552;9.370;2022-10-31T05:05:27;5.80;;;4.07;;
4601;SDS011;2313;48.552;9.370;2022-10-31T05:07:54;8.70;;;4.03;;
4601;SDS011;2313;48.552;9.370;2022-10-31T05:10:21;15.80;;;3.93;;
4601;SDS011;2313;48.552;9.370;2022-10-31T05:12:52;8.50;;;4.67;;
4601;SDS011;2313;48.552;9.370;2022-10-31T05:15:19;12.23;;;7.20;;
4601;SDS011;2313;48.552;9.370;2022-10-31T05:17:47;28.40;;;17.33;;
4601;SDS011;2313;48.552;9.370;2022-10-31T05:20:14;9.50;;;5.33;;
4601;SDS011;2313;48.552;9.370;2022-10-31T05:22:41;15.30;;;6.17;;
4601;SDS011;2313;48.552;9.370;2022-10-31T05:25:08;10.80;;;4.63;;
4601;SDS011;2313;48.552;9.370;2022-10-31T05:27:34;11.57;;;4.60;;
4601;SDS011;2313;48.552;9.370;2022-10-31T05:29:59;9.60;;;4.40;;
4601;SDS011;2313;48.552;9.370;2022-10-31T05:32:25;7.20;;;4.13;;
4601;SDS011;2313;48.552;9.370;2022-10-31T05:34:50;7.30;;;4.30;;
4601;SDS011;2313;48.552;9.370;2022-10-31T05:37:16;13.00;;;4.87;;
4601;SDS011;2313;48.552;9.370;2022-10-31T05:39:42;9.93;;;4.20;;
4601;SDS011;2313;48.552;9.370;2022-10-31T05:42:07;10.67;;;4.00;;
4601;SDS011;2313;48.552;9.370;2022-10-31T05:44:33;12.53;;;4.90;;
4601;SDS011;2313;48.552;9.370;2022-10-31T05:46:58;9.20;;;4.50;;
4601;SDS011;2313;48.552;9.370;2022-10-31T05:49:24;8.13;;;4.27;;
4601;SDS011;2313;48.552;9.370;2022-10-31T05:51:50;9.70;;;4.73;;
4601;SDS011;2313;48.552;9.370;2022-10-31T05:54:15;10.53;;;4.30;;
4601;SDS011;2313;48.552;9.370;2022-10-31T05:56:41;8.43;;;4.50;;
4601;SDS011;2313;48.552;9.370;2022-10-31T05:59:06;11.10;;;3.93;;
4601;SDS011;2313;48.552;9.370;2022-10-31T06:01:32;6.93;;;4.30;;
4601;SDS011;2313;48.552;9.370;2022-10-31T06:03:57;5.83;;;4.00;;
4601;SDS011;2313;48.552;9.370;2022-10-31T06:06:23;8.23;;;4.47;;
4601;SDS011;2313;48.552;9.370;2022-10-31T06:08:49;10.40;;;4.73;;
4601;SDS011;2313;48.552;9.370;2022-10-31T06:11:14;10.40;;;4.40;;
4601;SDS011;2313;48.552;9.370;2022-10-31T06:13:40;9.67;;;4.60;;
4601;SDS011;2313;48.552;9.370;2022-10-31T06:16:05;10.60;;;5.37;;
4601;SDS011;2313;48.552;9.370;2022-10-31T06:18:31;7.93;;;4.17;;
4601;SDS011;2313;48.552;9.370;2022-10-31T06:20:57;8.30;;;4.10;;
4601;SDS011;2313;48.552;9.370;2022-10-31T06:23:22;10.53;;;5.07;;
4601;SDS011;2313;48.552;9.370;2022-10-31T06:25:48;11.40;;;5.53;;
4601;SDS011;2313;48.552;9.370;2022-10-31T06:28:14;7.83;;;4.30;;
4601;SDS011;2313;48.552;9.370;2022-10-31T06:30:40;6.00;;;3.63;;
4601;SDS011;2313;48.552;9.370;2022-10-31T06:33:05;16.80;;;4.40;;
4601;SDS011;2313;48.552;9.370;2022-10-31T06:35:31;13.40;;;4.37;;
4601;SDS011;2313;48.552;9.370;2022-10-31T06:37:57;10.80;;;4.20;;
4601;SDS011;2313;48.552;9.370;2022-10-31T06:40:23;6.13;;;4.53;;
4601;SDS011;2313;48.552;9.370;2022-10-31T06:42:56;6.67;;;3.50;;
4601;SDS011;2313;48.552;9.370;2022-10-31T06:45:24;10.20;;;5.00;;
4601;SDS011;2313;48.552;9.370;2022-10-31T06:47:50;9.97;;;3.73;;
4601;SDS011;2313;48.552;9.370;2022-10-31T06:50:20;10.07;;;4.07;;
4601;SDS011;2313;48.552;9.370;2022-10-31T06:52:50;14.67;;;3.93;;
4601;SDS011;2313;48.552;9.370;2022-10-31T06:55:20;9.63;;;4.60;;
4601;SDS011;2313;48.552;9.370;2022-10-31T06:57:50;6.73;;;4.17;;
4601;SDS011;2313;48.552;9.370;2022-10-31T07:00:20;8.33;;;3.70;;
4601;SDS011;2313;48.552;9.370;2022-10-31T07:03:20;10.83;;;4.37;;
4601;SDS011;2313;48.552;9.370;2022-10-31T07:05:40;8.73;;;4.37;;
4601;SDS011;2313;48.552;9.370;2022-10-31T07:08:07;7.53;;;3.77;;
4601;SDS011;2313;48.552;9.370;2022-10-31T07:10:35;7.63;;;3.80;;
4601;SDS011;2313;48.552;9.370;2022-10-31T07:13:02;8.50;;;4.63;;
4601;SDS011;2313;48.552;9.370;2022-10-31T07:15:30;11.57;;;4.97;;
4601;SDS011;2313;48.552;9.370;2022-10-31T07:17:59;9.80;;;5.70;;
4601;SDS011;2313;48.552;9.370;2022-10-31T07:20:26;8.77;;;5.20;;
4601;SDS011;2313;48.552;9.370;2022-10-31T07:22:52;8.30;;;4.10;;
4601;SDS011;2313;48.552;9.370;2022-10-31T07:25:18;14.80;;;5.63;;
4601;SDS011;2313;48.552;9.370;2022-10-31T07:27:43;10.10;;;4.43;;
4601;SDS011;2313;48.552;9.370;2022-10-31T07:30:12;13.40;;;4.63;;
4601;SDS011;2313;48.552;9.370;2022-10-31T07:32:42;14.10;;;5.23;;
4601;SDS011;2313;48.552;9.370;2022-10-31T07:35:14;16.63;;;5.20;;
4601;SDS011;2313;48.552;9.370;2022-10-31T07:37:41;17.40;;;5.50;;
4601;SDS011;2313;48.552;9.370;2022-10-31T07:40:07;11.13;;;6.03;;
4601;SDS011;2313;48.552;9.370;2022-10-31T07:42:43;8.93;;;4.83;;
4601;SDS011;2313;48.552;9.370;2022-10-31T07:45:11;8.73;;;4.20;;
4601;SDS011;2313;48.552;9.370;2022-10-31T07:47:45;7.50;;;4.90;;
4601;SDS011;2313;48.552;9.370;2022-10-31T07:50:14;13.43;;;5.23;;
4601;SDS011;2313;48.552;9.370;2022-10-31T07:52:42;14.57;;;5.63;;
4601;SDS011;2313;48.552;9.370;2022-10-31T07:55:08;15.33;;;6.13;;
4601;SDS011;2313;48.552;9.370;2022-10-31T07:57:34;9.37;;;5.90;;
4601;SDS011;2313;48.552;9.370;2022-10-31T08:00:02;13.20;;;5.03;;
4601;SDS011;2313;48.552;9.370;2022-10-31T08:02:29;12.67;;;5.60;;
4601;SDS011;2313;48.552;9.370;2022-10-31T08:04:54;7.10;;;4.87;;
4601;SDS011;2313;48.552;9.370;2022-10-31T08:07:20;11.33;;;4.90;;
4601;SDS011;2313;48.552;9.370;2022-10-31T08:09:45;13.57;;;5.70;;
4601;SDS011;2313;48.552;9.370;2022-10-31T08:12:11;10.63;;;6.00;;
4601;SDS011;2313;48.552;9.370;2022-10-31T08:14:37;13.33;;;5.70;;
4601;SDS011;2313;48.552;9.370;2022-10-31T08:17:02;12.43;;;6.13;;
4601;SDS011;2313;48.552;9.370;2022-10-31T08:19:28;18.27;;;7.23;;
4601;SDS011;2313;48.552;9.370;2022-10-31T08:21:53;22.47;;;7.80;;
4601;SDS011;2313;48.552;9.370;2022-10-31T08:24:20;12.60;;;7.20;;
4601;SDS011;2313;48.552;9.370;2022-10-31T08:26:46;17.30;;;10.30;;
4601;SDS011;2313;48.552;9.370;2022-10-31T08:29:11;15.00;;;8.20;;
4601;SDS011;2313;48.552;9.370;2022-10-31T08:31:37;12.80;;;6.30;;
4601;SDS011;2313;48.552;9.370;2022-10-31T08:34:03;9.70;;;5.73;;
4601;SDS011;2313;48.552;9.370;2022-10-31T08:36:29;12.87;;;7.00;;
4601;SDS011;2313;48.552;9.370;2022-10-31T08:38:55;11.37;;;6.70;;
4601;SDS011;2313;48.552;9.370;2022-10-31T08:41:21;12.40;;;7.17;;
4601;SDS011;2313;48.552;9.370;2022-10-31T08:43:46;9.53;;;6.27;;
4601;SDS011;2313;48.552;9.370;2022-10-31T08:46:12;19.20;;;8.80;;
4601;SDS011;2313;48.552;9.370;2022-10-31T08:48:38;11.73;;;5.50;;
4601;SDS011;2313;48.552;9.370;2022-10-31T08:51:03;12.23;;;5.73;;
4601;SDS011;2313;48.552;9.370;2022-10-31T08:53:29;13.10;;;5.13;;
4601;SDS011;2313;48.552;9.370;2022-10-31T08:55:55;9.43;;;6.60;;
4601;SDS011;2313;48.552;9.370;2022-10-31T08:58:21;13.90;;;6.10;;
4601;SDS011;2313;48.552;9.370;2022-10-31T09:00:48;12.93;;;6.27;;
4601;SDS011;2313;48.552;9.370;2022-10-31T09:03:20;29.73;;;6.93;;
4601;SDS011;2313;48.552;9.370;2022-10-31T09:05:48;15.67;;;7.27;;
4601;SDS011;2313;48.552;9.370;2022-10-31T09:08:14;22.37;;;8.10;;
4601;SDS011;2313;48.552;9.370;2022-10-31T09:10:41;17.67;;;9.10;;
4601;SDS011;2313;48.552;9.370;2022-10-31T09:13:09;16.53;;;7.67;;
4601;SDS011;2313;48.552;9.370;2022-10-31T09:15:37;19.87;;;7.20;;
4601;SDS011;2313;48.552;9.370;2022-10-31T09:18:05;18.07;;;7.10;;
4601;SDS011;2313;48.552;9.370;2022-10-31T09:20:31;13.30;;;7.30;;
4601;SDS011;2313;48.552;9.370;2022-10-31T09:23:00;17.30;;;7.63;;
4601;SDS011;2313;48.552;9.370;2022-10-31T09:25:27;19.40;;;7.27;;
4601;SDS011;2313;48.552;9.370;2022-10-31T09:27:57;17.20;;;7.17;;
4601;SDS011;2313;48.552;9.370;2022-10-31T09:30:24;16.03;;;7.57;;
4601;SDS011;2313;48.552;9.370;2022-10-31T09:32:57;13.37;;;6.63;;
4601;SDS011;2313;48.552;9.370;2022-10-31T09:35:24;15.20;;;6.60;;
4601;SDS011;2313;48.552;9.370;2022-10-31T09:37:57;14.80;;;6.57;;
4601;SDS011;2313;48.552;9.370;2022-10-31T09:40:26;11.33;;;5.60;;
4601;SDS011;2313;48.552;9.370;2022-10-31T09:51:17;14.03;;;5.57;;
4601;SDS011;2313;48.552;9.370;2022-10-31T09:56:16;12.33;;;6.17;;
4601;SDS011;2313;48.552;9.370;2022-10-31T09:58:49;14.10;;;5.67;;
4601;SDS011;2313;48.552;9.370;2022-10-31T10:04:28;12.03;;;5.40;;
4601;SDS011;2313;48.552;9.370;2022-10-31T10:07:16;13.23;;;5.73;;
4601;SDS011;2313;48.552;9.370;2022-10-31T10:09:58;13.13;;;5.90;;
4601;SDS011;2313;48.552;9.370;2022-10-31T10:26:45;9.23;;;4.40;;
4601;SDS011;2313;48.552;9.370;2022-10-31T10:29:42;11.00;;;4.20;;
4601;SDS011;2313;48.552;9.370;2022-10-31T10:32:21;9.03;;;4.20;;
4601;SDS011;2313;48.552;9.370;2022-10-31T10:34:50;8.50;;;4.30;;
4601;SDS011;2313;48.552;9.370;2022-10-31T10:37:24;9.00;;;4.30;;
4601;SDS011;2313;48.552;9.370;2022-10-31T10:39:56;11.37;;;4.67;;
4601;SDS011;2313;48.552;9.370;2022-10-31T10:42:57;12.27;;;4.70;;
4601;SDS011;2313;48.552;9.370;2022-10-31T10:51:50;14.13;;;5.30;;
4601;SDS011;2313;48.552;9.370;2022-10-31T10:59:46;13.43;;;5.83;;
4601;SDS011;2313;48.552;9.370;2022-10-31T11:02:17;8.97;;;5.10;;
4601;SDS011;2313;48.552;9.370;2022-10-31T11:04:45;12.53;;;5.17;;
4601;SDS011;2313;48.552;9.370;2022-10-31T11:07:14;17.97;;;6.23;;
4601;SDS011;2313;48.552;9.370;2022-10-31T11:09:40;10.80;;;5.50;;
4601;SDS011;2313;48.552;9.370;2022-10-31T11:12:26;11.17;;;5.13;;
4601;SDS011;2313;48.552;9.370;2022-10-31T11:14:55;15.20;;;6.93;;
4601;SDS011;2313;48.552;9.370;2022-10-31T11:17:27;14.37;;;5.73;;
4601;SDS011;2313;48.552;9.370;2022-10-31T11:20:06;18.20;;;6.40;;
4601;SDS011;2313;48.552;9.370;2022-10-31T11:23:17;14.37;;;5.50;;
4601;SDS011;2313;48.552;9.370;2022-10-31T11:25:48;13.27;;;6.23;;
4601;SDS011;2313;48.552;9.370;2022-10-31T11:28:19;12.70;;;6.00;;
4601;SDS011;2313;48.552;9.370;2022-10-31T11:30:46;11.40;;;5.63;;
4601;SDS011;2313;48.552;9.370;2022-10-31T11:33:16;13.20;;;5.77;;
4601;SDS011;2313;48.552;9.370;2022-10-31T11:35:48;16.70;;;6.97;;
4601;SDS011;2313;48.552;9.370;2022-10-31T11:38:18;18.63;;;8.20;;
4601;SDS011;2313;48.552;9.370;2022-10-31T11:40:59;15.00;;;6.27;;
4601;SDS011;2313;48.552;9.370;2022-10-31T11:43:37;9.57;;;4.90;;
4601;SDS011;2313;48.552;9.370;2022-10-31T11:46:10;14.47;;;6.53;;
4601;SDS011;2313;48.552;9.370;2022-10-31T11:48:45;11.00;;;5.97;;
4601;SDS011;2313;48.552;9.370;2022-10-31T11:51:24;12.20;;;5.93;;
4601;SDS011;2313;48.552;9.370;2022-10-31T11:53:53;13.13;;;6.67;;
4601;SDS011;2313;48.552;9.370;2022-10-31T11:56:21;12.13;;;5.67;;
4601;SDS011;2313;48.552;9.370;2022-10-31T12:01:28;11.77;;;6.50;;
4601;SDS011;2313;48.552;9.370;2022-10-31T12:06:35;14.30;;;5.87;;
4601;SDS011;2313;48.552;9.370;2022-10-31T12:09:01;15.83;;;5.33;;
4601;SDS011;2313;48.552;9.370;2022-10-31T12:11:38;14.93;;;6.10;;
4601;SDS011;2313;48.552;9.370;2022-10-31T12:14:30;12.97;;;7.90;;
4601;SDS011;2313;48.552;9.370;2022-10-31T12:17:18;15.67;;;7.00;;
4601;SDS011;2313;48.552;9.370;2022-10-31T12:30:54;16.40;;;6.00;;
4601;SDS011;2313;48.552;9.370;2022-10-31T12:36:38;14.27;;;5.43;;
4601;SDS011;2313;48.552;9.370;2022-10-31T12:44:33;12.97;;;5.70;;
4601;SDS011;2313;48.552;9.370;2022-10-31T12:52:48;12.03;;;5.60;;
4601;SDS011;2313;48.552;9.370;2022-10-31T12:55:37;20.50;;;6.47;;
4601;SDS011;2313;48.552;9.370;2022-10-31T12:58:13;15.87;;;6.07;;
4601;SDS011;2313;48.552;9.370;2022-10-31T13:01:19;15.23;;;5.27;;
4601;SDS011;2313;48.552;9.370;2022-10-31T13:06:44;13.70;;;4.67;;
4601;SDS011;2313;48.552;9.370;2022-10-31T13:09:18;8.93;;;4.90;;
4601;SDS011;2313;48.552;9.370;2022-10-31T13:11:51;23.03;;;4.97;;
4601;SDS011;2313;48.552;9.370;2022-10-31T13:14:24;11.77;;;4.23;;
4601;SDS011;2313;48.552;9.370;2022-10-31T13:16:58;11.83;;;4.57;;
4601;SDS011;2313;48.552;9.370;2022-10-31T13:19:26;13.80;;;5.00;;
4601;SDS011;2313;48.552;9.370;2022-10-31T13:24:59;9.57;;;4.43;;
4601;SDS011;2313;48.552;9.370;2022-10-31T13:30:19;17.50;;;5.17;;
4601;SDS011;2313;48.552;9.370;2022-10-31T13:33:04;15.17;;;5.83;;
4601;SDS011;2313;48.552;9.370;2022-10-31T13:35:39;14.90;;;4.90;;
4601;SDS011;2313;48.552;9.370;2022-10-31T13:38:31;14.67;;;5.67;;
4601;SDS011;2313;48.552;9.370;2022-10-31T13:41:05;12.00;;;5.60;;
4601;SDS011;2313;48.552;9.370;2022-10-31T13:43:54;10.60;;;5.07;;
4601;SDS011;2313;48.552;9.370;2022-10-31T13:46:34;11.50;;;5.73;;
4601;SDS011;2313;48.552;9.370;2022-10-31T13:49:02;12.90;;;4.30;;
4601;SDS011;2313;48.552;9.370;2022-10-31T13:51:30;10.10;;;5.00;;
4601;SDS011;2313;48.552;9.370;2022-10-31T13:54:06;20.00;;;5.23;;
4601;SDS011;2313;48.552;9.370;2022-10-31T13:56:47;12.90;;;5.23;;
4601;SDS011;2313;48.552;9.370;2022-10-31T13:59:16;9.03;;;5.40;;
4601;SDS011;2313;48.552;9.370;2022-10-31T14:01:48;13.10;;;5.50;;
4601;SDS011;2313;48.552;9.370;2022-10-31T14:07:10;19.83;;;6.13;;
4601;SDS011;2313;48.552;9.370;2022-10-31T14:09:38;12.40;;;5.40;;
4601;SDS011;2313;48.552;9.370;2022-10-31T14:12:26;11.17;;;5.63;;
4601;SDS011;2313;48.552;9.370;2022-10-31T14:14:53;15.77;;;6.87;;
4601;SDS011;2313;48.552;9.370;2022-10-31T14:17:25;14.87;;;6.43;;
4601;SDS011;2313;48.552;9.370;2022-10-31T14:20:02;15.50;;;6.53;;
4601;SDS011;2313;48.552;9.370;2022-10-31T14:22:46;14.27;;;8.83;;
4601;SDS011;2313;48.552;9.370;2022-10-31T14:25:29;18.50;;;7.13;;
4601;SDS011;2313;48.552;9.370;2022-10-31T14:27:55;12.57;;;5.80;;
4601;SDS011;2313;48.552;9.370;2022-10-31T14:30:23;10.93;;;5.83;;
4601;SDS011;2313;48.552;9.370;2022-10-31T14:32:54;10.60;;;5.70;;
4601;SDS011;2313;48.552;9.370;2022-10-31T14:35:24;13.23;;;6.90;;
4601;SDS011;2313;48.552;9.370;2022-10-31T14:38:15;15.40;;;5.97;;
4601;SDS011;2313;48.552;9.370;2022-10-31T14:52:42;11.33;;;5.23;;
4601;SDS011;2313;48.552;9.370;2022-10-31T14:55:12;32.07;;;6.47;;
4601;SDS011;2313;48.552;9.370;2022-10-31T14:57:41;7.90;;;5.20;;
4601;SDS011;2313;48.552;9.370;2022-10-31T15:00:17;15.47;;;6.97;;
4601;SDS011;2313;48.552;9.370;2022-10-31T15:05:40;11.97;;;7.23;;
4601;SDS011;2313;48.552;9.370;2022-10-31T15:11:13;13.50;;;7.23;;
4601;SDS011;2313;48.552;9.370;2022-10-31T15:13:45;13.37;;;6.70;;
4601;SDS011;2313;48.552;9.370;2022-10-31T15:16:20;9.90;;;6.87;;
4601;SDS011;2313;48.552;9.370;2022-10-31T15:18:52;14.40;;;6.80;;
4601;SDS011;2313;48.552;9.370;2022-10-31T15:21:19;14.40;;;7.20;;
4601;SDS011;2313;48.552;9.370;2022-10-31T15:23:46;15.83;;;6.37;;
4601;SDS011;2313;48.552;9.370;2022-10-31T15:26:15;15.43;;;7.37;;
4601;SDS011;2313;48.552;9.370;2022-10-31T15:28:43;15.67;;;7.97;;
4601;SDS011;2313;48.552;9.370;2022-10-31T15:31:14;15.80;;;6.83;;
4601;SDS011;2313;48.552;9.370;2022-10-31T15:33:41;24.77;;;8.17;;
4601;SDS011;2313;48.552;9.370;2022-10-31T15:36:29;19.93;;;8.50;;
4601;SDS011;2313;48.552;9.370;2022-10-31T15:38:55;13.57;;;7.93;;
4601;SDS011;2313;48.552;9.370;2022-10-31T15:44:04;19.17;;;9.07;;
4601;SDS011;2313;48.552;9.370;2022-10-31T15:46:37;25.80;;;11.53;;
4601;SDS011;2313;48.552;9.370;2022-10-31T15:49:03;15.40;;;8.53;;
4601;SDS011;2313;48.552;9.370;2022-10-31T15:51:30;18.47;;;8.37;;
4601;SDS011;2313;48.552;9.370;2022-10-31T15:53:59;20.50;;;10.37;;
4601;SDS011;2313;48.552;9.370;2022-10-31T15:56:27;19.67;;;9.13;;
4601;SDS011;2313;48.552;9.370;2022-10-31T15:58:55;12.63;;;8.00;;
4601;SDS011;2313;48.552;9.370;2022-10-31T16:06:27;19.13;;;7.00;;
4601;SDS011;2313;48.552;9.370;2022-10-31T16:08:53;15.80;;;7.17;;
4601;SDS011;2313;48.552;9.370;2022-10-31T16:14:06;17.33;;;8.30;;
4601;SDS011;2313;48.552;9.370;2022-10-31T16:16:40;17.83;;;8.23;;
4601;SDS011;2313;48.552;9.370;2022-10-31T16:19:14;15.47;;;8.87;;
4601;SDS011;2313;48.552;9.370;2022-10-31T16:21:45;23.30;;;8.53;;
4601;SDS011;2313;48.552;9.370;2022-10-31T16:24:19;15.77;;;7.60;;
4601;SDS011;2313;48.552;9.370;2022-10-31T16:26:49;12.93;;;7.33;;
4601;SDS011;2313;48.552;9.370;2022-10-31T16:32:03;15.40;;;8.00;;
4601;SDS011;2313;48.552;9.370;2022-10-31T16:34:29;18.03;;;8.43;;
4601;SDS011;2313;48.552;9.370;2022-10-31T16:36:55;19.40;;;7.80;;
4601;SDS011;2313;48.552;9.370;2022-10-31T16:39:20;20.80;;;7.20;;
4601;SDS011;2313;48.552;9.370;2022-10-31T16:41:47;19.93;;;9.70;;
4601;SDS011;2313;48.552;9.370;2022-10-31T16:44:19;22.90;;;9.87;;
4601;SDS011;2313;48.552;9.370;2022-10-31T16:46:48;16.93;;;7.33;;
4601;SDS011;2313;48.552;9.370;2022-10-31T16:49:26;21.70;;;7.10;;
4601;SDS011;2313;48.552;9.370;2022-10-31T16:51:51;20.33;;;7.13;;
4601;SDS011;2313;48.552;9.370;2022-10-31T16:54:17;18.90;;;8.50;;
4601;SDS011;2313;48.552;9.370;2022-10-31T16:56:43;17.20;;;10.03;;
4601;SDS011;2313;48.552;9.370;2022-10-31T16:59:09;20.23;;;9.43;;
4601;SDS011;2313;48.552;9.370;2022-10-31T17:01:37;11.70;;;6.50;;
4601;SDS011;2313;48.552;9.370;2022-10-31T17:04:04;17.43;;;6.80;;
4601;SDS011;2313;48.552;9.370;2022-10-31T17:06:30;20.37;;;7.20;;
4601;SDS011;2313;48.552;9.370;2022-10-31T17:08:55;12.43;;;7.37;;
4601;SDS011;2313;48.552;9.370;2022-10-31T17:11:22;12.97;;;6.80;;
4601;SDS011;2313;48.552;9.370;2022-10-31T17:13:50;18.43;;;6.70;;
4601;SDS011;2313;48.552;9.370;2022-10-31T17:16:16;14.37;;;6.17;;
4601;SDS011;2313;48.552;9.370;2022-10-31T17:18:41;12.83;;;6.70;;
4601;SDS011;2313;48.552;9.370;2022-10-31T17:21:14;16.10;;;7.17;;
4601;SDS011;2313;48.552;9.370;2022-10-31T17:23:46;27.33;;;7.27;;
4601;SDS011;2313;48.552;9.370;2022-10-31T17:26:13;24.07;;;7.83;;
4601;SDS011;2313;48.552;9.370;2022-10-31T17:28:38;20.33;;;6.90;;
4601;SDS011;2313;48.552;9.370;2022-10-31T17:31:04;15.77;;;7.00;;
4601;SDS011;2313;48.552;9.370;2022-10-31T17:33:30;14.83;;;6.30;;
4601;SDS011;2313;48.552;9.370;2022-10-31T17:35:55;10.70;;;4.87;;
4601;SDS011;2313;48.552;9.370;2022-10-31T17:38:21;18.07;;;5.90;;
4601;SDS011;2313;48.552;9.370;2022-10-31T17:40:47;9.30;;;5.30;;
4601;SDS011;2313;48.552;9.370;2022-10-31T17:43:12;17.00;;;6.57;;